sensor_id;sensor_type;location;lat;lon;timestamp;pressure;altitude;pressure_sealevel;temperature;humidity
75745;BME280;64359;51.366;-0.222;2023-11-19T00:01:02;100552.89;;;22.78;59.71
75745;BME280;64359;51.366;-0.222;2023-11-19T00:02:08;100547.13;;;22.77;59.71
75745;BME280;64359;51.366;-0.222;2023-11-19T00:03:12;100546.29;;;22.77;59.69
75745;BME280;64359;51.366;-0.222;2023-11-19T00:04:17;100546.16;;;22.78;59.70
75745;BME280;64359;51.366;-0.222;2023-11-19T00:05:21;100547.25;;;22.78;59.62
75745;BME280;64359;51.366;-0.222;2023-11-19T00:06:25;100545.79;;;22.78;59.79
75745;BME280;64359;51.366;-0.222;2023-11-19T00:07:30;100548.38;;;22.78;59.62
75745;BME280;64359;51.366;-0.222;2023-11-19T00:08:35;100547.33;;;22.77;59.51
75745;BME280;64359;51.366;-0.222;2023-11-19T00:09:39;100544.02;;;22.78;59.65
75745;BME280;64359;51.366;-0.222;2023-11-19T00:10:44;100539.69;;;22.78;59.64
75745;BME280;64359;51.366;-0.222;2023-11-19T00:11:49;100539.98;;;22.78;59.58
75745;BME280;64359;51.366;-0.222;2023-11-19T00:12:53;100534.34;;;22.78;59.53
75745;BME280;64359;51.366;-0.222;2023-11-19T00:13:59;100536.02;;;22.78;59.63
75745;BME280;64359;51.366;-0.222;2023-11-19T00:15:05;100533.21;;;22.79;59.63
75745;BME280;64359;51.366;-0.222;2023-11-19T00:16:10;100534.00;;;22.78;59.60
75745;BME280;64359;51.366;-0.222;2023-11-19T00:17:15;100538.98;;;22.79;59.61
75745;BME280;64359;51.366;-0.222;2023-11-19T00:18:19;100538.65;;;22.79;59.51
75745;BME280;64359;51.366;-0.222;2023-11-19T00:19:23;100537.47;;;22.79;59.76
75745;BME280;64359;51.366;-0.222;2023-11-19T00:20:29;100538.30;;;22.80;59.74
75745;BME280;64359;51.366;-0.222;2023-11-19T00:21:33;100539.45;;;22.80;59.75
75745;BME280;64359;51.366;-0.222;2023-11-19T00:22:38;100536.47;;;22.80;59.82
75745;BME280;64359;51.366;-0.222;2023-11-19T00:23:42;100532.38;;;22.77;59.74
75745;BME280;64359;51.366;-0.222;2023-11-19T00:24:46;100534.99;;;22.80;59.82
75745;BME280;64359;51.366;-0.222;2023-11-19T00:25:50;100540.05;;;22.82;59.90
75745;BME280;64359;51.366;-0.222;2023-11-19T00:26:55;100538.59;;;22.82;59.57
75745;BME280;64359;51.366;-0.222;2023-11-19T00:27:59;100538.92;;;22.83;59.54
75745;BME280;64359;51.366;-0.222;2023-11-19T00:29:03;100537.27;;;22.84;59.71
75745;BME280;64359;51.366;-0.222;2023-11-19T00:30:10;100538.30;;;22.84;59.70
75745;BME280;64359;51.366;-0.222;2023-11-19T00:31:14;100534.95;;;22.81;59.53
75745;BME280;64359;51.366;-0.222;2023-11-19T00:32:18;100543.27;;;22.85;59.39
75745;BME280;64359;51.366;-0.222;2023-11-19T00:33:23;100540.81;;;22.86;59.49
75745;BME280;64359;51.366;-0.222;2023-11-19T00:34:27;100540.44;;;22.86;59.37
75745;BME280;64359;51.366;-0.222;2023-11-19T00:35:31;100537.34;;;22.86;59.37
75745;BME280;64359;51.366;-0.222;2023-11-19T00:36:36;100527.77;;;22.85;59.36
75745;BME280;64359;51.366;-0.222;2023-11-19T00:37:40;100526.40;;;22.86;59.49
75745;BME280;64359;51.366;-0.222;2023-11-19T00:38:45;100523.67;;;22.86;59.60
75745;BME280;64359;51.366;-0.222;2023-11-19T00:39:49;100526.39;;;22.86;59.59
75745;BME280;64359;51.366;-0.222;2023-11-19T00:40:55;100525.06;;;22.85;59.45
75745;BME280;64359;51.366;-0.222;2023-11-19T00:41:59;100528.15;;;22.87;59.54
75745;BME280;64359;51.366;-0.222;2023-11-19T00:43:03;100523.21;;;22.86;59.37
75745;BME280;64359;51.366;-0.222;2023-11-19T00:44:08;100524.39;;;22.87;59.39
75745;BME280;64359;51.366;-0.222;2023-11-19T00:45:12;100521.42;;;22.85;59.33
75745;BME280;64359;51.366;-0.222;2023-11-19T00:46:17;100518.29;;;22.86;59.42
75745;BME280;64359;51.366;-0.222;2023-11-19T00:47:21;100517.45;;;22.85;59.39
75745;BME280;64359;51.366;-0.222;2023-11-19T00:48:25;100511.60;;;22.85;59.48
75745;BME280;64359;51.366;-0.222;2023-11-19T00:49:31;100512.27;;;22.85;59.30
75745;BME280;64359;51.366;-0.222;2023-11-19T00:50:36;100513.65;;;22.84;59.25
75745;BME280;64359;51.366;-0.222;2023-11-19T00:51:40;100519.66;;;22.84;59.30
75745;BME280;64359;51.366;-0.222;2023-11-19T00:52:44;100521.71;;;22.84;59.24
75745;BME280;64359;51.366;-0.222;2023-11-19T00:53:50;100520.59;;;22.84;59.24
75745;BME280;64359;51.366;-0.222;2023-11-19T00:54:55;100517.77;;;22.82;59.36
75745;BME280;64359;51.366;-0.222;2023-11-19T00:56:00;100513.73;;;22.82;59.30
75745;BME280;64359;51.366;-0.222;2023-11-19T00:57:05;100513.06;;;22.82;59.37
75745;BME280;64359;51.366;-0.222;2023-11-19T00:58:09;100511.64;;;22.82;59.45
75745;BME280;64359;51.366;-0.222;2023-11-19T00:59:14;100507.57;;;22.81;59.41
75745;BME280;64359;51.366;-0.222;2023-11-19T01:00:18;100508.66;;;22.81;59.47
75745;BME280;64359;51.366;-0.222;2023-11-19T01:01:24;100510.33;;;22.81;59.30
75745;BME280;64359;51.366;-0.222;2023-11-19T01:02:28;100515.34;;;22.80;59.50
75745;BME280;64359;51.366;-0.222;2023-11-19T01:03:33;100514.41;;;22.80;59.44
75745;BME280;64359;51.366;-0.222;2023-11-19T01:04:37;100512.54;;;22.79;59.42
75745;BME280;64359;51.366;-0.222;2023-11-19T01:05:42;100511.98;;;22.79;59.64
75745;BME280;64359;51.366;-0.222;2023-11-19T01:06:47;100518.25;;;22.78;59.53
75745;BME280;64359;51.366;-0.222;2023-11-19T01:07:51;100518.26;;;22.78;59.52
75745;BME280;64359;51.366;-0.222;2023-11-19T01:08:57;100521.39;;;22.78;59.45
75745;BME280;64359;51.366;-0.222;2023-11-19T01:10:01;100523.23;;;22.78;59.58
75745;BME280;64359;51.366;-0.222;2023-11-19T01:11:06;100518.88;;;22.78;59.42
75745;BME280;64359;51.366;-0.222;2023-11-19T01:12:11;100511.27;;;22.78;59.35
75745;BME280;64359;51.366;-0.222;2023-11-19T01:13:15;100516.38;;;22.78;59.60
75745;BME280;64359;51.366;-0.222;2023-11-19T01:14:20;100515.83;;;22.77;59.69
75745;BME280;64359;51.366;-0.222;2023-11-19T01:15:25;100520.42;;;22.78;59.47
75745;BME280;64359;51.366;-0.222;2023-11-19T01:16:29;100513.03;;;22.78;59.62
75745;BME280;64359;51.366;-0.222;2023-11-19T01:17:33;100506.27;;;22.78;59.67
75745;BME280;64359;51.366;-0.222;2023-11-19T01:18:38;100504.09;;;22.78;59.56
75745;BME280;64359;51.366;-0.222;2023-11-19T01:19:42;100506.85;;;22.80;59.38
75745;BME280;64359;51.366;-0.222;2023-11-19T01:20:46;100505.89;;;22.80;59.68
75745;BME280;64359;51.366;-0.222;2023-11-19T01:21:51;100507.77;;;22.81;59.33
75745;BME280;64359;51.366;-0.222;2023-11-19T01:22:55;100498.88;;;22.77;59.41
75745;BME280;64359;51.366;-0.222;2023-11-19T01:24:00;100503.34;;;22.81;59.50
75745;BME280;64359;51.366;-0.222;2023-11-19T01:25:07;100502.20;;;22.82;59.44
75745;BME280;64359;51.366;-0.222;2023-11-19T01:26:12;100501.83;;;22.83;59.30
75745;BME280;64359;51.366;-0.222;2023-11-19T01:27:17;100501.77;;;22.83;59.32
75745;BME280;64359;51.366;-0.222;2023-11-19T01:28:21;100507.80;;;22.85;59.41
75745;BME280;64359;51.366;-0.222;2023-11-19T01:29:26;100510.81;;;22.85;59.31
75745;BME280;64359;51.366;-0.222;2023-11-19T01:30:30;100516.40;;;22.85;59.22
75745;BME280;64359;51.366;-0.222;2023-11-19T01:31:34;100511.98;;;22.86;59.21
75745;BME280;64359;51.366;-0.222;2023-11-19T01:32:40;100512.10;;;22.86;59.47
75745;BME280;64359;51.366;-0.222;2023-11-19T01:33:45;100513.60;;;22.87;59.29
75745;BME280;64359;51.366;-0.222;2023-11-19T01:34:49;100518.41;;;22.86;59.22
75745;BME280;64359;51.366;-0.222;2023-11-19T01:35:53;100522.59;;;22.88;59.43
75745;BME280;64359;51.366;-0.222;2023-11-19T01:36:59;100511.59;;;22.83;59.27
75745;BME280;64359;51.366;-0.222;2023-11-19T01:38:03;100511.30;;;22.88;59.04
75745;BME280;64359;51.366;-0.222;2023-11-19T01:39:07;100506.07;;;22.84;59.10
75745;BME280;64359;51.366;-0.222;2023-11-19T01:40:13;100509.05;;;22.88;59.03
75745;BME280;64359;51.366;-0.222;2023-11-19T01:41:18;100504.70;;;22.89;59.17
75745;BME280;64359;51.366;-0.222;2023-11-19T01:42:22;100508.30;;;22.89;59.23
75745;BME280;64359;51.366;-0.222;2023-11-19T01:43:35;100506.38;;;22.88;59.15
75745;BME280;64359;51.366;-0.222;2023-11-19T01:44:39;100508.38;;;22.88;59.06
75745;BME280;64359;51.366;-0.222;2023-11-19T01:45:44;100508.92;;;22.88;59.07
75745;BME280;64359;51.366;-0.222;2023-11-19T01:46:48;100507.29;;;22.88;59.01
75745;BME280;64359;51.366;-0.222;2023-11-19T01:47:53;100504.95;;;22.88;58.92
75745;BME280;64359;51.366;-0.222;2023-11-19T01:48:57;100506.20;;;22.88;59.04
75745;BME280;64359;51.366;-0.222;2023-11-19T01:50:04;100500.69;;;22.88;59.15
75745;BME280;64359;51.366;-0.222;2023-11-19T01:51:11;100505.50;;;22.87;59.06
75745;BME280;64359;51.366;-0.222;2023-11-19T01:52:16;100509.48;;;22.87;59.07
75745;BME280;64359;51.366;-0.222;2023-11-19T01:53:21;100514.73;;;22.87;59.00
75745;BME280;64359;51.366;-0.222;2023-11-19T01:54:25;100510.43;;;22.87;59.05
75745;BME280;64359;51.366;-0.222;2023-11-19T01:55:31;100510.52;;;22.86;59.01
75745;BME280;64359;51.366;-0.222;2023-11-19T01:56:35;100508.55;;;22.85;59.02
75745;BME280;64359;51.366;-0.222;2023-11-19T01:57:41;100508.30;;;22.85;59.13
75745;BME280;64359;51.366;-0.222;2023-11-19T01:58:47;100515.91;;;22.85;59.11
75745;BME280;64359;51.366;-0.222;2023-11-19T01:59:53;100512.81;;;22.84;59.12
75745;BME280;64359;51.366;-0.222;2023-11-19T02:00:58;100513.77;;;22.83;59.06
75745;BME280;64359;51.366;-0.222;2023-11-19T02:02:03;100511.77;;;22.83;59.05
75745;BME280;64359;51.366;-0.222;2023-11-19T02:03:08;100502.86;;;22.78;59.14
75745;BME280;64359;51.366;-0.222;2023-11-19T02:04:13;100509.80;;;22.82;59.17
75745;BME280;64359;51.366;-0.222;2023-11-19T02:05:18;100513.85;;;22.82;59.26
75745;BME280;64359;51.366;-0.222;2023-11-19T02:06:25;100514.80;;;22.81;58.88
75745;BME280;64359;51.366;-0.222;2023-11-19T02:07:30;100513.25;;;22.80;58.98
75745;BME280;64359;51.366;-0.222;2023-11-19T02:08:34;100509.99;;;22.80;58.97
75745;BME280;64359;51.366;-0.222;2023-11-19T02:09:38;100507.34;;;22.80;59.19
75745;BME280;64359;51.366;-0.222;2023-11-19T02:10:43;100510.40;;;22.80;59.06
75745;BME280;64359;51.366;-0.222;2023-11-19T02:11:47;100505.93;;;22.80;59.25
75745;BME280;64359;51.366;-0.222;2023-11-19T02:12:54;100504.09;;;22.80;59.11
75745;BME280;64359;51.366;-0.222;2023-11-19T02:13:58;100502.50;;;22.79;59.14
75745;BME280;64359;51.366;-0.222;2023-11-19T02:15:04;100506.77;;;22.80;59.20
75745;BME280;64359;51.366;-0.222;2023-11-19T02:16:09;100504.46;;;22.80;59.17
75745;BME280;64359;51.366;-0.222;2023-11-19T02:17:27;100500.99;;;22.76;59.24
75745;BME280;64359;51.366;-0.222;2023-11-19T02:18:34;100506.35;;;22.80;59.11
75745;BME280;64359;51.366;-0.222;2023-11-19T02:19:38;100505.81;;;22.81;59.23
75745;BME280;64359;51.366;-0.222;2023-11-19T02:20:42;100504.29;;;22.81;59.24
75745;BME280;64359;51.366;-0.222;2023-11-19T02:21:47;100497.79;;;22.77;58.95
75745;BME280;64359;51.366;-0.222;2023-11-19T02:22:51;100503.16;;;22.81;59.08
75745;BME280;64359;51.366;-0.222;2023-11-19T02:23:55;100500.77;;;22.82;59.34
75745;BME280;64359;51.366;-0.222;2023-11-19T02:25:03;100500.86;;;22.81;59.14
75745;BME280;64359;51.366;-0.222;2023-11-19T02:26:14;100503.20;;;22.81;59.31
75745;BME280;64359;51.366;-0.222;2023-11-19T02:27:26;100501.27;;;22.82;59.42
75745;BME280;64359;51.366;-0.222;2023-11-19T02:28:34;100504.12;;;22.82;59.09
75745;BME280;64359;51.366;-0.222;2023-11-19T02:29:40;100504.48;;;22.82;59.08
75745;BME280;64359;51.366;-0.222;2023-11-19T02:30:44;100510.35;;;22.83;59.16
75745;BME280;64359;51.366;-0.222;2023-11-19T02:31:48;100504.73;;;22.79;59.09
75745;BME280;64359;51.366;-0.222;2023-11-19T02:32:53;100510.80;;;22.84;59.01
75745;BME280;64359;51.366;-0.222;2023-11-19T02:34:00;100513.73;;;22.83;59.10
75745;BME280;64359;51.366;-0.222;2023-11-19T02:35:06;100515.66;;;22.84;59.05
75745;BME280;64359;51.366;-0.222;2023-11-19T02:36:12;100513.81;;;22.84;59.22
75745;BME280;64359;51.366;-0.222;2023-11-19T02:37:16;100513.98;;;22.84;59.06
75745;BME280;64359;51.366;-0.222;2023-11-19T02:38:22;100508.38;;;22.84;59.20
75745;BME280;64359;51.366;-0.222;2023-11-19T02:39:26;100509.59;;;22.85;59.05
75745;BME280;64359;51.366;-0.222;2023-11-19T02:40:31;100509.17;;;22.85;58.96
75745;BME280;64359;51.366;-0.222;2023-11-19T02:41:35;100503.95;;;22.85;58.86
75745;BME280;64359;51.366;-0.222;2023-11-19T02:42:39;100501.16;;;22.86;58.94
75745;BME280;64359;51.366;-0.222;2023-11-19T02:43:44;100496.94;;;22.86;58.92
75745;BME280;64359;51.366;-0.222;2023-11-19T02:44:51;100495.01;;;22.85;58.80
75745;BME280;64359;51.366;-0.222;2023-11-19T02:45:55;100495.73;;;22.86;58.85
75745;BME280;64359;51.366;-0.222;2023-11-19T02:47:00;100494.84;;;22.85;58.82
75745;BME280;64359;51.366;-0.222;2023-11-19T02:48:06;100496.89;;;22.85;58.69
75745;BME280;64359;51.366;-0.222;2023-11-19T02:49:10;100488.70;;;22.81;58.94
75745;BME280;64359;51.366;-0.222;2023-11-19T02:50:15;100487.83;;;22.85;58.84
75745;BME280;64359;51.366;-0.222;2023-11-19T02:51:19;100482.50;;;22.81;58.92
75745;BME280;64359;51.366;-0.222;2023-11-19T02:52:25;100477.33;;;22.85;58.90
75745;BME280;64359;51.366;-0.222;2023-11-19T02:53:29;100475.24;;;22.84;58.84
75745;BME280;64359;51.366;-0.222;2023-11-19T02:54:33;100480.73;;;22.84;58.72
75745;BME280;64359;51.366;-0.222;2023-11-19T02:55:38;100473.73;;;22.83;58.76
75745;BME280;64359;51.366;-0.222;2023-11-19T02:56:45;100473.45;;;22.83;58.73
75745;BME280;64359;51.366;-0.222;2023-11-19T02:57:51;100473.95;;;22.83;58.78
75745;BME280;64359;51.366;-0.222;2023-11-19T02:58:56;100474.44;;;22.82;58.83
75745;BME280;64359;51.366;-0.222;2023-11-19T03:00:00;100473.70;;;22.82;58.90
75745;BME280;64359;51.366;-0.222;2023-11-19T03:01:09;100471.55;;;22.81;58.81
75745;BME280;64359;51.366;-0.222;2023-11-19T03:02:22;100477.45;;;22.81;58.72
75745;BME280;64359;51.366;-0.222;2023-11-19T03:03:28;100479.73;;;22.81;58.73
75745;BME280;64359;51.366;-0.222;2023-11-19T03:04:40;100473.83;;;22.80;58.71
75745;BME280;64359;51.366;-0.222;2023-11-19T03:05:46;100468.32;;;22.79;58.91
75745;BME280;64359;51.366;-0.222;2023-11-19T03:06:51;100466.95;;;22.79;58.83
75745;BME280;64359;51.366;-0.222;2023-11-19T03:07:56;100466.86;;;22.78;58.74
75745;BME280;64359;51.366;-0.222;2023-11-19T03:09:01;100469.20;;;22.78;58.74
75745;BME280;64359;51.366;-0.222;2023-11-19T03:10:10;100469.66;;;22.77;58.81
75745;BME280;64359;51.366;-0.222;2023-11-19T03:11:16;100471.33;;;22.77;58.92
75745;BME280;64359;51.366;-0.222;2023-11-19T03:12:21;100467.11;;;22.76;58.86
75745;BME280;64359;51.366;-0.222;2023-11-19T03:13:25;100460.17;;;22.72;58.97
75745;BME280;64359;51.366;-0.222;2023-11-19T03:14:29;100455.20;;;22.72;58.83
75745;BME280;64359;51.366;-0.222;2023-11-19T03:15:35;100465.61;;;22.77;58.94
75745;BME280;64359;51.366;-0.222;2023-11-19T03:16:40;100464.10;;;22.77;58.97
75745;BME280;64359;51.366;-0.222;2023-11-19T03:17:44;100464.23;;;22.78;58.83
75745;BME280;64359;51.366;-0.222;2023-11-19T03:18:48;100469.95;;;22.78;58.96
75745;BME280;64359;51.366;-0.222;2023-11-19T03:19:53;100465.98;;;22.78;59.03
75745;BME280;64359;51.366;-0.222;2023-11-19T03:20:57;100464.98;;;22.78;58.90
75745;BME280;64359;51.366;-0.222;2023-11-19T03:22:02;100461.98;;;22.78;58.93
75745;BME280;64359;51.366;-0.222;2023-11-19T03:23:06;100464.02;;;22.79;58.98
75745;BME280;64359;51.366;-0.222;2023-11-19T03:24:11;100465.64;;;22.80;58.78
75745;BME280;64359;51.366;-0.222;2023-11-19T03:25:17;100469.63;;;22.80;58.85
75745;BME280;64359;51.366;-0.222;2023-11-19T03:26:21;100468.91;;;22.80;58.91
75745;BME280;64359;51.366;-0.222;2023-11-19T03:27:26;100474.06;;;22.81;58.75
75745;BME280;64359;51.366;-0.222;2023-11-19T03:28:30;100477.25;;;22.82;58.80
75745;BME280;64359;51.366;-0.222;2023-11-19T03:29:34;100476.30;;;22.82;58.74
75745;BME280;64359;51.366;-0.222;2023-11-19T03:30:39;100477.75;;;22.83;58.66
75745;BME280;64359;51.366;-0.222;2023-11-19T03:31:44;100470.27;;;22.84;58.90
75745;BME280;64359;51.366;-0.222;2023-11-19T03:32:48;100474.75;;;22.84;58.73
75745;BME280;64359;51.366;-0.222;2023-11-19T03:33:53;100471.45;;;22.84;58.82
75745;BME280;64359;51.366;-0.222;2023-11-19T03:34:57;100472.86;;;22.85;58.82
75745;BME280;64359;51.366;-0.222;2023-11-19T03:36:02;100471.90;;;22.85;58.79
75745;BME280;64359;51.366;-0.222;2023-11-19T03:37:06;100472.73;;;22.85;58.64
75745;BME280;64359;51.366;-0.222;2023-11-19T03:38:11;100469.48;;;22.86;58.89
75745;BME280;64359;51.366;-0.222;2023-11-19T03:39:17;100474.20;;;22.85;58.70
75745;BME280;64359;51.366;-0.222;2023-11-19T03:40:21;100475.33;;;22.85;58.68
75745;BME280;64359;51.366;-0.222;2023-11-19T03:41:27;100472.33;;;22.86;58.68
75745;BME280;64359;51.366;-0.222;2023-11-19T03:42:31;100469.10;;;22.85;58.73
75745;BME280;64359;51.366;-0.222;2023-11-19T03:43:35;100472.45;;;22.85;58.67
75745;BME280;64359;51.366;-0.222;2023-11-19T03:44:40;100472.27;;;22.85;58.78
75745;BME280;64359;51.366;-0.222;2023-11-19T03:45:44;100460.41;;;22.79;58.67
75745;BME280;64359;51.366;-0.222;2023-11-19T03:46:49;100466.27;;;22.84;58.62
75745;BME280;64359;51.366;-0.222;2023-11-19T03:47:53;100471.06;;;22.84;58.57
75745;BME280;64359;51.366;-0.222;2023-11-19T03:48:58;100473.11;;;22.84;58.54
75745;BME280;64359;51.366;-0.222;2023-11-19T03:50:03;100470.86;;;22.83;58.65
75745;BME280;64359;51.366;-0.222;2023-11-19T03:51:08;100475.08;;;22.83;58.75
75745;BME280;64359;51.366;-0.222;2023-11-19T03:52:12;100474.77;;;22.82;58.69
75745;BME280;64359;51.366;-0.222;2023-11-19T03:53:16;100473.58;;;22.82;58.55
75745;BME280;64359;51.366;-0.222;2023-11-19T03:54:21;100471.98;;;22.82;58.62
75745;BME280;64359;51.366;-0.222;2023-11-19T03:55:26;100468.59;;;22.81;58.84
75745;BME280;64359;51.366;-0.222;2023-11-19T03:56:30;100466.16;;;22.81;58.63
75745;BME280;64359;51.366;-0.222;2023-11-19T03:57:35;100464.77;;;22.80;58.53
75745;BME280;64359;51.366;-0.222;2023-11-19T03:58:40;100464.70;;;22.79;58.69
75745;BME280;64359;51.366;-0.222;2023-11-19T03:59:45;100467.11;;;22.79;58.80
75745;BME280;64359;51.366;-0.222;2023-11-19T04:00:49;100466.11;;;22.78;58.64
75745;BME280;64359;51.366;-0.222;2023-11-19T04:01:54;100465.77;;;22.78;58.78
75745;BME280;64359;51.366;-0.222;2023-11-19T04:02:59;100467.36;;;22.77;58.73
75745;BME280;64359;51.366;-0.222;2023-11-19T04:04:04;100468.49;;;22.77;58.59
75745;BME280;64359;51.366;-0.222;2023-11-19T04:05:09;100471.46;;;22.76;58.66
75745;BME280;64359;51.366;-0.222;2023-11-19T04:06:14;100474.84;;;22.75;58.67
75745;BME280;64359;51.366;-0.222;2023-11-19T04:07:18;100478.44;;;22.75;58.75
75745;BME280;64359;51.366;-0.222;2023-11-19T04:08:23;100478.44;;;22.76;58.79
75745;BME280;64359;51.366;-0.222;2023-11-19T04:09:27;100474.30;;;22.75;58.63
75745;BME280;64359;51.366;-0.222;2023-11-19T04:10:32;100469.25;;;22.75;58.73
75745;BME280;64359;51.366;-0.222;2023-11-19T04:11:37;100470.88;;;22.75;58.64
75745;BME280;64359;51.366;-0.222;2023-11-19T04:12:41;100468.37;;;22.75;58.70
75745;BME280;64359;51.366;-0.222;2023-11-19T04:13:45;100469.59;;;22.76;58.85
75745;BME280;64359;51.366;-0.222;2023-11-19T04:14:50;100465.15;;;22.75;58.67
75745;BME280;64359;51.366;-0.222;2023-11-19T04:15:54;100462.80;;;22.76;58.62
75745;BME280;64359;51.366;-0.222;2023-11-19T04:16:58;100452.86;;;22.72;58.62
75745;BME280;64359;51.366;-0.222;2023-11-19T04:18:03;100462.52;;;22.77;58.62
75745;BME280;64359;51.366;-0.222;2023-11-19T04:19:07;100464.61;;;22.77;58.46
75745;BME280;64359;51.366;-0.222;2023-11-19T04:20:12;100460.30;;;22.73;58.55
75745;BME280;64359;51.366;-0.222;2023-11-19T04:21:17;100467.20;;;22.78;58.55
75745;BME280;64359;51.366;-0.222;2023-11-19T04:22:21;100469.63;;;22.79;58.48
75745;BME280;64359;51.366;-0.222;2023-11-19T04:23:25;100465.86;;;22.80;58.32
75745;BME280;64359;51.366;-0.222;2023-11-19T04:24:29;100462.98;;;22.80;58.35
75745;BME280;64359;51.366;-0.222;2023-11-19T04:25:34;100466.63;;;22.81;58.30
75745;BME280;64359;51.366;-0.222;2023-11-19T04:26:41;100466.89;;;22.82;58.36
75745;BME280;64359;51.366;-0.222;2023-11-19T04:27:47;100466.64;;;22.82;58.31
75745;BME280;64359;51.366;-0.222;2023-11-19T04:28:52;100467.98;;;22.83;58.10
75745;BME280;64359;51.366;-0.222;2023-11-19T04:29:57;100467.30;;;22.84;58.21
75745;BME280;64359;51.366;-0.222;2023-11-19T04:31:01;100464.67;;;22.85;58.17
75745;BME280;64359;51.366;-0.222;2023-11-19T04:32:07;100461.17;;;22.85;58.34
75745;BME280;64359;51.366;-0.222;2023-11-19T04:33:12;100464.42;;;22.85;58.30
75745;BME280;64359;51.366;-0.222;2023-11-19T04:34:16;100465.63;;;22.86;58.14
75745;BME280;64359;51.366;-0.222;2023-11-19T04:35:20;100469.56;;;22.86;58.30
75745;BME280;64359;51.366;-0.222;2023-11-19T04:36:25;100469.94;;;22.86;58.23
75745;BME280;64359;51.366;-0.222;2023-11-19T04:37:29;100464.92;;;22.87;58.36
75745;BME280;64359;51.366;-0.222;2023-11-19T04:38:33;100464.80;;;22.87;58.27
75745;BME280;64359;51.366;-0.222;2023-11-19T04:39:37;100462.79;;;22.86;58.33
75745;BME280;64359;51.366;-0.222;2023-11-19T04:40:42;100457.14;;;22.87;58.43
75745;BME280;64359;51.366;-0.222;2023-11-19T04:41:50;100458.03;;;22.87;58.31
75745;BME280;64359;51.366;-0.222;2023-11-19T04:42:55;100460.23;;;22.87;58.46
75745;BME280;64359;51.366;-0.222;2023-11-19T04:43:59;100463.55;;;22.86;58.40
75745;BME280;64359;51.366;-0.222;2023-11-19T04:45:04;100467.02;;;22.86;58.36
75745;BME280;64359;51.366;-0.222;2023-11-19T04:46:10;100463.00;;;22.86;58.34
75745;BME280;64359;51.366;-0.222;2023-11-19T04:47:15;100460.70;;;22.86;58.34
75745;BME280;64359;51.366;-0.222;2023-11-19T04:48:19;100459.87;;;22.85;58.27
75745;BME280;64359;51.366;-0.222;2023-11-19T04:49:23;100462.41;;;22.86;58.28
75745;BME280;64359;51.366;-0.222;2023-11-19T04:50:29;100462.50;;;22.85;58.28
75745;BME280;64359;51.366;-0.222;2023-11-19T04:51:39;100467.77;;;22.85;58.22
75745;BME280;64359;51.366;-0.222;2023-11-19T04:52:44;100466.17;;;22.84;58.16
75745;BME280;64359;51.366;-0.222;2023-11-19T04:53:49;100467.98;;;22.83;58.28
75745;BME280;64359;51.366;-0.222;2023-11-19T04:54:53;100468.10;;;22.83;58.27
75745;BME280;64359;51.366;-0.222;2023-11-19T04:55:57;100469.32;;;22.83;58.23
75745;BME280;64359;51.366;-0.222;2023-11-19T04:57:02;100469.02;;;22.82;58.39
75745;BME280;64359;51.366;-0.222;2023-11-19T04:58:07;100470.14;;;22.82;58.39
75745;BME280;64359;51.366;-0.222;2023-11-19T04:59:11;100457.72;;;22.77;58.48
75745;BME280;64359;51.366;-0.222;2023-11-19T05:00:16;100459.80;;;22.78;58.23
75745;BME280;64359;51.366;-0.222;2023-11-19T05:01:20;100463.23;;;22.81;58.54
75745;BME280;64359;51.366;-0.222;2023-11-19T05:02:24;100463.43;;;22.80;58.36
75745;BME280;64359;51.366;-0.222;2023-11-19T05:03:28;100467.63;;;22.80;58.31
75745;BME280;64359;51.366;-0.222;2023-11-19T05:04:33;100469.87;;;22.80;58.45
75745;BME280;64359;51.366;-0.222;2023-11-19T05:05:38;100468.84;;;22.79;58.44
75745;BME280;64359;51.366;-0.222;2023-11-19T05:06:42;100465.69;;;22.79;58.36
75745;BME280;64359;51.366;-0.222;2023-11-19T05:07:46;100464.86;;;22.78;58.55
75745;BME280;64359;51.366;-0.222;2023-11-19T05:08:50;100460.89;;;22.78;58.48
75745;BME280;64359;51.366;-0.222;2023-11-19T05:09:54;100462.23;;;22.77;58.53
75745;BME280;64359;51.366;-0.222;2023-11-19T05:10:59;100455.38;;;22.77;58.60
75745;BME280;64359;51.366;-0.222;2023-11-19T05:12:04;100459.85;;;22.76;58.60
75745;BME280;64359;51.366;-0.222;2023-11-19T05:13:11;100457.50;;;22.76;58.61
75745;BME280;64359;51.366;-0.222;2023-11-19T05:14:15;100455.88;;;22.76;58.54
75745;BME280;64359;51.366;-0.222;2023-11-19T05:15:21;100452.16;;;22.76;58.42
75745;BME280;64359;51.366;-0.222;2023-11-19T05:16:27;100455.58;;;22.76;58.59
75745;BME280;64359;51.366;-0.222;2023-11-19T05:17:31;100448.31;;;22.76;58.62
75745;BME280;64359;51.366;-0.222;2023-11-19T05:18:35;100447.06;;;22.76;58.59
75745;BME280;64359;51.366;-0.222;2023-11-19T05:19:39;100446.35;;;22.76;58.60
75745;BME280;64359;51.366;-0.222;2023-11-19T05:20:44;100443.13;;;22.76;58.54
75745;BME280;64359;51.366;-0.222;2023-11-19T05:21:48;100439.95;;;22.76;58.54
75745;BME280;64359;51.366;-0.222;2023-11-19T05:22:55;100440.33;;;22.76;58.70
75745;BME280;64359;51.366;-0.222;2023-11-19T05:23:59;100441.96;;;22.76;58.53
75745;BME280;64359;51.366;-0.222;2023-11-19T05:25:04;100442.63;;;22.77;58.50
75745;BME280;64359;51.366;-0.222;2023-11-19T05:26:09;100438.58;;;22.77;58.47
75745;BME280;64359;51.366;-0.222;2023-11-19T05:27:14;100438.29;;;22.78;58.45
75745;BME280;64359;51.366;-0.222;2023-11-19T05:28:18;100438.02;;;22.78;58.37
75745;BME280;64359;51.366;-0.222;2023-11-19T05:29:22;100440.54;;;22.78;58.31
75745;BME280;64359;51.366;-0.222;2023-11-19T05:30:27;100438.08;;;22.79;58.21
75745;BME280;64359;51.366;-0.222;2023-11-19T05:31:31;100441.08;;;22.80;58.26
75745;BME280;64359;51.366;-0.222;2023-11-19T05:32:35;100444.60;;;22.81;58.12
75745;BME280;64359;51.366;-0.222;2023-11-19T05:33:40;100444.44;;;22.80;58.14
75745;BME280;64359;51.366;-0.222;2023-11-19T05:34:44;100444.91;;;22.81;58.22
75745;BME280;64359;51.366;-0.222;2023-11-19T05:35:48;100448.05;;;22.82;57.98